Time;durP1;ratioP1;P1;durP2;ratioP2;P2;SDS_P1;SDS_P2;PMS_P1;PMS_P2;Temp;Humidity;BMP_temperature;BMP_pressure;BME280_temperature;BME280_humidity;BME280_pressure;Samples;Min_cycle;Max_cycle;Signal;HPM_P1;HPM_P2
2022/07/23 00:00:10;;;;;;;5.07;2.60;;;;;;;19.08;57.53;100101.59;4973518;28;20043;-64
2022/07/23 00:02:37;;;;;;;3.00;2.20;;;;;;;19.13;57.97;100106.50;4973935;28;20073;-65
2022/07/23 00:05:04;;;;;;;3.00;2.30;;;;;;;19.14;57.83;100095.69;4973814;28;20483;-64
2022/07/23 00:07:30;;;;;;;3.97;2.38;;;;;;;19.18;57.53;100090.97;4973878;28;20065;-64
2022/07/23 00:09:57;;;;;;;6.63;2.30;;;;;;;19.20;57.55;100101.47;4973613;28;20054;-64
2022/07/23 00:12:24;;;;;;;2.38;2.17;;;;;;;19.23;57.73;100106.53;4973815;28;20455;-64
2022/07/23 00:14:51;;;;;;;4.20;2.15;;;;;;;19.24;57.97;100116.22;4973553;28;20388;-65
2022/07/23 00:17:17;;;;;;;4.05;2.65;;;;;;;19.27;57.84;100118.63;4973556;28;20059;-65
2022/07/23 00:19:44;;;;;;;4.93;2.70;;;;;;;19.30;58.05;100106.84;4973485;28;20062;-64
2022/07/23 00:22:11;;;;;;;3.92;2.40;;;;;;;19.32;58.20;100116.41;4973944;28;20134;-65
2022/07/23 00:24:37;;;;;;;3.90;2.00;;;;;;;19.33;58.19;100110.06;4973930;28;20078;-64
2022/07/23 00:27:04;;;;;;;7.60;2.70;;;;;;;19.36;58.37;100115.16;4973822;28;20050;-67
2022/07/23 00:29:31;;;;;;;6.63;2.90;;;;;;;19.38;58.73;100115.03;4973635;28;20182;-64
2022/07/23 00:31:58;;;;;;;4.88;2.25;;;;;;;19.40;58.61;100113.06;4973622;28;20451;-65
2022/07/23 00:34:24;;;;;;;2.28;1.88;;;;;;;19.43;58.14;100106.63;4973502;28;20050;-65
2022/07/23 00:36:53;;;;;;;7.05;2.45;;;;;;;19.43;57.99;100102.09;4973452;28;20057;-65
2022/07/23 00:39:23;;;;;;;4.82;2.55;;;;;;;19.44;57.95;100103.78;4973373;28;20082;-63
2022/07/23 00:41:51;;;;;;;4.85;2.38;;;;;;;19.46;57.89;100101.84;4973601;28;20055;-63
2022/07/23 00:44:20;;;;;;;4.53;2.72;;;;;;;19.46;58.21;100100.97;4973277;28;20054;-64
2022/07/23 00:46:52;;;;;;;5.63;2.78;;;;;;;19.45;58.17;100102.81;4973297;28;20690;-63
2022/07/23 00:49:21;;;;;;;4.15;2.30;;;;;;;19.46;57.99;100101.84;4971693;28;20065;-64
2022/07/23 00:51:48;;;;;;;6.03;3.15;;;;;;;19.46;58.09;100095.63;4971972;28;20081;-64
2022/07/23 00:54:19;;;;;;;4.53;2.92;;;;;;;19.45;58.42;100099.28;4973189;28;20057;-66
2022/07/23 00:56:47;;;;;;;7.20;2.58;;;;;;;19.45;57.68;100096.63;4973087;28;20046;-64
2022/07/23 00:59:14;;;;;;;4.25;2.75;;;;;;;19.44;57.82;100097.63;4972863;28;20050;-64
2022/07/23 01:01:40;;;;;;;5.63;2.83;;;;;;;19.42;57.92;100094.22;4973222;28;20058;-64
2022/07/23 01:04:07;;;;;;;4.30;2.72;;;;;;;19.39;57.90;100093.53;4973174;28;20050;-65
2022/07/23 01:06:36;;;;;;;3.85;2.80;;;;;;;19.38;58.22;100107.00;4972830;28;20054;-65
2022/07/23 01:09:06;;;;;;;5.53;3.08;;;;;;;19.36;58.22;100104.47;4972684;28;20043;-63
2022/07/23 01:11:34;;;;;;;4.38;2.75;;;;;;;19.35;58.37;100102.78;4972490;28;20047;-63
2022/07/23 01:14:13;;;;;;;3.40;2.55;;;;;;;19.31;58.97;100095.19;4972453;28;20520;-67
2022/07/23 01:16:41;;;;;;;6.93;3.28;;;;;;;19.33;58.21;100086.06;4971702;28;20055;-64
2022/07/23 01:19:09;;;;;;;4.75;2.80;;;;;;;19.33;58.79;100074.56;4972562;28;20055;-64
2022/07/23 01:21:43;;;;;;;8.13;3.08;;;;;;;19.31;59.10;100077.34;4972664;28;20057;-67
2022/07/23 01:24:11;;;;;;;4.57;2.85;;;;;;;19.31;58.74;100072.00;4972701;28;20050;-64
2022/07/23 01:26:39;;;;;;;6.15;3.00;;;;;;;19.30;58.86;100072.16;4972806;28;20109;-66
2022/07/23 01:29:06;;;;;;;5.22;2.90;;;;;;;19.28;59.12;100077.63;4972399;28;20054;-64
2022/07/23 01:31:32;;;;;;;8.65;2.85;;;;;;;19.27;59.02;100075.94;4972502;28;20058;-64
2022/07/23 01:33:59;;;;;;;11.93;3.65;;;;;;;19.24;59.05;100061.03;4972542;28;20047;-63
2022/07/23 01:36:26;;;;;;;5.88;2.85;;;;;;;19.24;58.89;100066.38;4971140;28;20054;-66
2022/07/23 01:38:53;;;;;;;3.88;2.58;;;;;;;19.22;59.08;100064.84;4972136;28;20051;-65
2022/07/23 01:41:20;;;;;;;4.40;3.10;;;;;;;19.21;59.42;100069.31;4972515;28;20174;-65
2022/07/23 01:43:47;;;;;;;6.13;2.97;;;;;;;19.20;59.17;100064.09;4972198;28;20050;-64
2022/07/23 01:46:14;;;;;;;3.38;2.47;;;;;;;19.19;58.86;100057.94;4972411;28;20055;-64
2022/07/23 01:48:42;;;;;;;4.00;3.00;;;;;;;19.18;59.27;100056.28;4971995;28;20116;-64
2022/07/23 01:51:09;;;;;;;10.65;3.00;;;;;;;19.16;59.38;100052.03;4972087;28;20455;-63
2022/07/23 01:53:36;;;;;;;4.43;2.90;;;;;;;19.14;59.38;100050.34;4972513;28;20058;-63
2022/07/23 01:56:03;;;;;;;3.85;3.10;;;;;;;19.12;59.08;100052.31;4972378;28;20487;-65
2022/07/23 01:58:30;;;;;;;4.88;2.80;;;;;;;19.08;59.14;100056.22;4971778;28;20059;-63
2022/07/23 02:00:57;;;;;;;4.75;2.83;;;;;;;19.06;59.20;100049.34;4971977;28;20047;-64
2022/07/23 02:03:24;;;;;;;4.35;2.67;;;;;;;19.01;59.07;100041.72;4972045;28;20058;-63
2022/07/23 02:05:51;;;;;;;4.82;3.00;;;;;;;18.99;59.21;100046.34;4971959;28;20057;-64
2022/07/23 02:08:17;;;;;;;4.32;2.38;;;;;;;18.95;58.95;100055.59;4971893;28;20055;-63
2022/07/23 02:10:45;;;;;;;7.25;3.15;;;;;;;18.89;59.07;100052.47;4972053;28;20101;-65
2022/07/23 02:13:12;;;;;;;9.90;3.80;;;;;;;18.85;59.17;100051.06;4971957;28;20127;-64
2022/07/23 02:15:46;;;;;;;5.70;3.25;;;;;;;18.81;59.40;100052.31;4971806;28;20054;-64
2022/07/23 02:18:13;;;;;;;4.63;2.88;;;;;;;18.77;58.83;100056.22;4971571;28;20054;-64
2022/07/23 02:20:40;;;;;;;5.78;3.55;;;;;;;18.72;59.24;100045.94;4971795;28;20050;-64
2022/07/23 02:23:07;;;;;;;5.95;3.05;;;;;;;18.69;59.27;100042.72;4971666;28;20539;-65
2022/07/23 02:25:34;;;;;;;6.95;3.50;;;;;;;18.67;59.46;100050.00;4971738;28;20519;-65
2022/07/23 02:28:01;;;;;;;8.30;2.95;;;;;;;18.66;59.48;100056.31;4971789;28;20051;-64
2022/07/23 02:30:27;;;;;;;4.15;3.13;;;;;;;18.65;59.46;100054.63;4971544;28;20042;-64
2022/07/23 02:32:55;;;;;;;4.65;2.58;;;;;;;18.64;59.74;100047.63;4971673;28;20043;-65
2022/07/23 02:35:21;;;;;;;5.75;3.38;;;;;;;18.63;59.86;100049.41;4970407;28;20047;-64
2022/07/23 02:37:48;;;;;;;5.82;3.53;;;;;;;18.64;60.33;100053.78;4971777;28;20088;-64
2022/07/23 02:40:16;;;;;;;7.38;3.25;;;;;;;18.63;60.18;100052.09;4971422;28;20055;-64
2022/07/23 02:42:43;;;;;;;4.80;3.70;;;;;;;18.65;60.30;100054.63;4971680;28;20054;-63
2022/07/23 02:45:10;;;;;;;3.88;3.22;;;;;;;18.66;60.53;100046.50;4971537;28;20059;-64
2022/07/23 02:47:36;;;;;;;4.65;3.58;;;;;;;18.67;60.43;100042.00;4971495;28;20050;-64
2022/07/23 02:50:05;;;;;;;7.35;3.80;;;;;;;18.67;60.41;100042.84;4971340;28;20054;-63
2022/07/23 02:52:32;;;;;;;5.05;3.97;;;;;;;18.68;60.33;100047.19;4971712;28;20109;-66
2022/07/23 02:54:58;;;;;;;5.00;3.80;;;;;;;18.69;60.30;100048.06;4971566;28;20411;-63
2022/07/23 02:57:25;;;;;;;4.75;3.80;;;;;;;18.68;60.26;100049.88;4971585;28;20054;-64
2022/07/23 02:59:51;;;;;;;6.85;3.58;;;;;;;18.66;59.87;100049.16;4971011;28;20058;-66
2022/07/23 03:02:18;;;;;;;4.63;3.08;;;;;;;18.66;59.71;100048.31;4971696;28;20051;-64
2022/07/23 03:04:44;;;;;;;5.15;3.20;;;;;;;18.61;59.63;100049.56;4971323;28;20484;-63
2022/07/23 03:07:11;;;;;;;6.28;3.92;;;;;;;18.58;59.43;100051.66;4971422;28;20062;-66
2022/07/23 03:09:38;;;;;;;9.40;3.55;;;;;;;18.53;59.46;100065.34;4971152;28;20063;-66
2022/07/23 03:12:05;;;;;;;7.25;3.95;;;;;;;18.49;59.19;100059.47;4971355;28;20055;-66
2022/07/23 03:14:39;;;;;;;4.93;3.72;;;;;;;18.44;59.24;100059.00;4971209;28;20102;-64
2022/07/23 03:17:06;;;;;;;6.15;3.95;;;;;;;18.39;59.59;100060.38;4970145;28;20047;-68
2022/07/23 03:19:32;;;;;;;5.97;4.03;;;;;;;18.35;59.78;100057.09;4971254;28;20047;-65
2022/07/23 03:21:59;;;;;;;8.45;4.45;;;;;;;18.32;59.63;100065.38;4971570;28;20059;-63
2022/07/23 03:27:11;;;;;;;9.00;4.28;;;;;;;18.26;59.69;100055.22;4971186;28;20054;-64
2022/07/23 03:29:37;;;;;;;7.03;4.50;;;;;;;18.21;59.72;100056.47;4970891;28;20054;-65
2022/07/23 03:32:04;;;;;;;8.80;4.60;;;;;;;18.19;60.05;100053.09;4971142;28;20062;-67
2022/07/23 03:34:31;;;;;;;5.50;3.65;;;;;;;18.16;60.15;100063.19;4971174;28;20459;-64
2022/07/23 03:36:58;;;;;;;5.85;3.75;;;;;;;18.13;60.21;100056.25;4974135;28;21006;-64
2022/07/23 03:39:28;;;;;;;5.30;3.60;;;;;;;18.12;60.10;100059.09;4974566;28;20062;-65
2022/07/23 03:41:54;;;;;;;6.88;3.85;;;;;;;18.06;59.90;100061.22;4974665;28;20054;-64
2022/07/23 03:44:21;;;;;;;4.55;3.20;;;;;;;18.05;60.29;100062.22;4974417;28;20105;-64
2022/07/23 03:46:47;;;;;;;5.50;4.45;;;;;;;18.04;60.54;100065.84;4974512;28;20436;-63
2022/07/23 03:49:14;;;;;;;11.00;4.45;;;;;;;18.02;60.66;100057.13;4973964;28;20054;-65
2022/07/23 03:51:41;;;;;;;6.68;4.13;;;;;;;18.01;60.41;100060.78;4974120;28;20157;-65
2022/07/23 03:54:08;;;;;;;4.32;3.92;;;;;;;18.01;60.42;100062.63;4974322;28;20451;-64
2022/07/23 03:56:35;;;;;;;4.45;3.70;;;;;;;18.00;60.41;100060.91;4974306;28;20046;-66
2022/07/23 03:59:02;;;;;;;4.03;3.47;;;;;;;17.97;60.54;100068.19;4974089;28;20047;-65
2022/07/23 04:01:30;;;;;;;9.05;4.13;;;;;;;17.95;60.54;100061.31;4974254;28;20101;-64
2022/07/23 04:03:57;;;;;;;6.53;4.32;;;;;;;17.93;60.53;100049.91;4974152;28;20046;-63
2022/07/23 04:06:23;;;;;;;8.10;4.30;;;;;;;17.91;60.26;100057.22;4974042;28;20047;-64
2022/07/23 04:08:50;;;;;;;7.55;4.45;;;;;;;17.87;60.34;100059.25;4973807;28;20055;-63
2022/07/23 04:11:16;;;;;;;5.28;4.43;;;;;;;17.85;60.41;100055.91;4972774;28;20074;-63
2022/07/23 04:13:43;;;;;;;7.07;4.47;;;;;;;17.83;60.46;100055.19;4974054;28;20046;-67
2022/07/23 04:16:10;;;;;;;6.70;4.60;;;;;;;17.81;60.46;100065.97;4974007;28;20158;-64
2022/07/23 04:18:36;;;;;;;6.80;4.90;;;;;;;17.79;60.71;100062.56;4973668;28;20051;-64
2022/07/23 04:21:03;;;;;;;6.55;4.38;;;;;;;17.77;60.67;100067.19;4973796;28;20051;-63
2022/07/23 04:23:30;;;;;;;4.93;4.32;;;;;;;17.74;60.57;100056.78;4973885;28;20451;-64
2022/07/23 04:25:56;;;;;;;7.35;4.75;;;;;;;17.74;60.83;100050.59;4973835;28;20066;-70
2022/07/23 04:28:23;;;;;;;7.25;3.85;;;;;;;17.73;61.00;100049.78;4973623;28;20720;-63
2022/07/23 04:30:50;;;;;;;5.32;4.18;;;;;;;17.74;61.06;100056.78;4973645;28;20051;-67
2022/07/23 04:33:16;;;;;;;6.18;4.30;;;;;;;17.74;61.22;100056.78;4973605;28;20521;-65
2022/07/23 04:35:43;;;;;;;5.80;4.38;;;;;;;17.75;61.47;100053.16;4973425;28;20459;-64
2022/07/23 04:38:10;;;;;;;5.50;4.38;;;;;;;17.76;61.46;100060.16;4973239;28;20103;-66
2022/07/23 04:40:36;;;;;;;4.85;3.85;;;;;;;17.78;61.51;100057.38;4973582;28;20049;-66
2022/07/23 04:43:03;;;;;;;6.50;4.63;;;;;;;17.79;61.36;100057.25;4973460;28;20054;-64
2022/07/23 04:45:29;;;;;;;6.03;4.30;;;;;;;17.80;61.34;100061.59;4973454;28;20057;-63
2022/07/23 04:47:56;;;;;;;8.65;4.97;;;;;;;17.81;61.56;100065.09;4972372;28;20055;-66
2022/07/23 04:50:23;;;;;;;4.90;4.30;;;;;;;17.83;61.21;100064.00;4972865;28;20089;-63
2022/07/23 04:52:51;;;;;;;10.93;4.55;;;;;;;17.84;61.53;100065.69;4973007;28;20093;-64
2022/07/23 04:55:17;;;;;;;8.65;4.43;;;;;;;17.87;61.46;100066.41;4973081;28;20065;-65
2022/07/23 04:57:44;;;;;;;6.35;4.78;;;;;;;17.88;61.65;100062.78;4973286;28;20059;-66
2022/07/23 05:00:11;;;;;;;6.50;4.93;;;;;;;17.90;61.68;100068.84;4972948;28;20043;-64
2022/07/23 05:02:38;;;;;;;6.03;4.63;;;;;;;17.91;61.65;100070.53;4973026;28;20088;-64
2022/07/23 05:05:05;;;;;;;6.18;4.53;;;;;;;17.94;61.83;100059.63;4972809;28;20075;-66
2022/07/23 05:07:31;;;;;;;5.30;3.63;;;;;;;17.96;61.48;100060.31;4973202;28;20062;-64
2022/07/23 05:09:58;;;;;;;6.70;5.22;;;;;;;17.98;61.34;100067.22;4972635;28;20051;-64
2022/07/23 05:12:24;;;;;;;5.20;4.18;;;;;;;18.01;61.50;100067.94;4972820;28;20054;-67
2022/07/23 05:14:52;;;;;;;5.45;4.30;;;;;;;18.03;61.32;100077.50;4972776;28;20106;-64
2022/07/23 05:17:19;;;;;;;4.68;4.15;;;;;;;18.06;61.43;100077.22;4972811;28;20065;-65
2022/07/23 05:19:45;;;;;;;8.65;4.47;;;;;;;18.10;61.81;100077.84;4972558;28;20058;-64
2022/07/23 05:22:12;;;;;;;5.13;4.05;;;;;;;18.12;61.66;100086.56;4972875;28;20053;-64
2022/07/23 05:24:38;;;;;;;7.80;4.32;;;;;;;18.15;61.79;100078.31;4971454;28;20086;-66
2022/07/23 05:27:05;;;;;;;7.75;4.18;;;;;;;18.19;62.07;100078.88;4972447;28;20051;-66
2022/07/23 05:29:32;;;;;;;5.50;4.20;;;;;;;18.23;62.05;100077.66;4972288;28;20047;-64
2022/07/23 05:31:59;;;;;;;6.40;4.00;;;;;;;18.27;62.05;100084.41;4972285;28;20067;-66
2022/07/23 05:34:26;;;;;;;6.28;3.72;;;;;;;18.31;61.94;100085.84;4972394;28;20062;-65
2022/07/23 05:36:52;;;;;;;4.53;3.50;;;;;;;18.36;61.69;100093.47;4972273;28;20051;-65
2022/07/23 05:39:19;;;;;;;7.85;4.07;;;;;;;18.39;61.58;100092.34;4972284;28;20046;-64
2022/07/23 05:41:45;;;;;;;8.90;4.43;;;;;;;18.44;61.94;100090.13;4971800;28;20503;-64
2022/07/23 05:44:12;;;;;;;6.43;3.83;;;;;;;18.48;62.06;100095.09;4972168;28;20055;-64
2022/07/23 05:46:38;;;;;;;7.35;3.80;;;;;;;18.53;62.11;100099.16;4972294;28;20110;-63
2022/07/23 05:49:05;;;;;;;7.00;3.47;;;;;;;18.56;61.91;100099.75;4972185;28;20065;-67
2022/07/23 05:51:33;;;;;;;4.85;3.20;;;;;;;18.60;61.82;100111.84;4972131;28;20086;-65
2022/07/23 05:53:59;;;;;;;3.72;2.83;;;;;;;18.64;61.81;100115.09;4972448;28;20047;-66
2022/07/23 05:56:26;;;;;;;3.97;2.35;;;;;;;18.66;61.62;100113.16;4972012;28;20101;-65
2022/07/23 05:58:52;;;;;;;4.78;2.67;;;;;;;18.70;61.26;100121.72;4971748;28;20046;-66
2022/07/23 06:01:19;;;;;;;5.10;3.10;;;;;;;18.73;61.53;100121.47;4970978;28;20059;-64
2022/07/23 06:03:45;;;;;;;4.25;2.80;;;;;;;18.75;61.48;100119.50;4972270;28;20056;-66
2022/07/23 06:06:12;;;;;;;4.53;2.97;;;;;;;18.80;61.84;100124.44;4971926;28;20100;-65
2022/07/23 06:08:39;;;;;;;5.30;2.70;;;;;;;18.84;61.24;100126.72;4971895;28;20058;-63
2022/07/23 06:11:05;;;;;;;3.25;2.95;;;;;;;18.88;61.25;100124.63;4971946;28;20050;-64
2022/07/23 06:13:32;;;;;;;4.63;3.50;;;;;;;18.92;61.64;100122.53;4971873;28;20523;-67
2022/07/23 06:15:58;;;;;;;4.47;3.45;;;;;;;18.95;61.62;100122.28;4972030;28;20072;-65
2022/07/23 06:18:25;;;;;;;3.97;3.30;;;;;;;18.98;61.54;100124.66;4971661;28;20419;-65
2022/07/23 06:20:51;;;;;;;5.03;3.75;;;;;;;19.01;61.77;100127.94;4972060;28;20051;-63
2022/07/23 06:23:26;;;;;;;4.72;3.28;;;;;;;19.05;61.27;100138.31;4971850;28;20051;-65
2022/07/23 06:25:52;;;;;;;5.65;3.65;;;;;;;19.08;61.16;100130.09;4971884;28;20066;-65
2022/07/23 06:28:19;;;;;;;8.48;4.22;;;;;;;19.11;61.49;100130.66;4971588;28;20058;-64
2022/07/23 06:30:45;;;;;;;5.82;4.15;;;;;;;19.15;60.83;100136.59;4971992;28;20050;-64
2022/07/23 06:33:12;;;;;;;5.65;3.17;;;;;;;19.17;60.59;100134.59;4971839;28;20051;-66
2022/07/23 06:35:39;;;;;;;4.07;3.22;;;;;;;19.21;60.76;100137.88;4970481;28;20124;-66
2022/07/23 06:38:05;;;;;;;5.38;3.40;;;;;;;19.22;60.26;100129.72;4971443;28;20043;-63
2022/07/23 06:40:34;;;;;;;4.40;2.60;;;;;;;19.25;60.33;100136.63;4971739;28;20066;-65
2022/07/23 06:43:00;;;;;;;5.38;2.92;;;;;;;19.29;60.20;100143.38;4971461;28;20059;-65
2022/07/23 06:45:27;;;;;;;5.00;2.40;;;;;;;19.32;60.10;100148.44;4971859;28;20738;-64
2022/07/23 06:47:54;;;;;;;3.65;2.15;;;;;;;19.34;59.93;100143.81;4971744;28;20427;-64
2022/07/23 06:50:20;;;;;;;3.72;2.63;;;;;;;19.36;59.92;100149.84;4971128;28;20613;-65
2022/07/23 06:52:47;;;;;;;4.15;2.35;;;;;;;19.40;60.08;100153.13;4971584;28;20062;-65
2022/07/23 06:55:13;;;;;;;3.83;2.50;;;;;;;19.43;60.23;100155.50;4971510;28;20078;-63
2022/07/23 06:57:41;;;;;;;4.10;2.40;;;;;;;19.47;59.97;100156.91;4971245;28;20055;-65
2022/07/23 07:00:08;;;;;;;3.17;2.08;;;;;;;19.50;59.59;100159.31;4971244;28;20047;-64
2022/07/23 07:02:35;;;;;;;3.33;2.22;;;;;;;19.54;59.66;100149.19;4971451;28;20062;-64
2022/07/23 07:05:02;;;;;;;4.38;2.20;;;;;;;19.57;59.38;100153.41;4971492;28;20051;-64
2022/07/23 07:07:32;;;;;;;4.68;2.28;;;;;;;19.60;59.34;100154.00;4971418;28;20511;-65
2022/07/23 07:09:58;;;;;;;5.53;2.10;;;;;;;19.63;59.60;100151.03;4971154;28;20051;-65
2022/07/23 07:12:25;;;;;;;4.20;2.03;;;;;;;19.67;59.33;100162.31;4975242;28;20051;-68
2022/07/23 07:14:53;;;;;;;5.85;3.28;;;;;;;19.72;59.53;100153.88;4975349;28;20054;-65
2022/07/23 07:17:19;;;;;;;2.97;2.67;;;;;;;19.77;59.56;100162.31;4974995;28;20110;-66
2022/07/23 07:19:46;;;;;;;4.35;2.88;;;;;;;19.83;59.54;100160.94;4974845;28;20058;-63
2022/07/23 07:22:13;;;;;;;4.82;3.05;;;;;;;19.90;59.64;100157.59;4974813;28;20467;-65
2022/07/23 07:24:39;;;;;;;4.97;2.92;;;;;;;19.98;59.77;100159.59;4974861;28;20054;-67
2022/07/23 07:27:06;;;;;;;5.30;2.75;;;;;;;20.05;59.71;100163.41;4975016;28;20059;-65
2022/07/23 07:29:33;;;;;;;4.78;2.72;;;;;;;20.16;59.88;100157.06;4974613;28;20082;-64
2022/07/23 07:31:59;;;;;;;6.50;3.10;;;;;;;20.29;59.90;100163.94;4974740;28;20053;-67
2022/07/23 07:34:26;;;;;;;4.10;2.70;;;;;;;20.43;59.85;100168.03;4974564;28;20051;-66
2022/07/23 07:36:53;;;;;;;6.60;2.97;;;;;;;20.54;59.00;100167.88;4974514;28;20050;-64
2022/07/23 07:39:19;;;;;;;4.88;2.78;;;;;;;20.61;58.12;100173.50;4974408;28;20650;-64
2022/07/23 07:41:46;;;;;;;5.13;3.13;;;;;;;20.67;57.77;100170.25;4974792;28;20047;-66
2022/07/23 07:44:12;;;;;;;3.35;2.50;;;;;;;20.68;57.26;100169.25;4974904;28;20055;-64
2022/07/23 07:46:39;;;;;;;5.35;2.58;;;;;;;20.68;56.95;100171.91;4974671;28;20082;-64
2022/07/23 07:49:06;;;;;;;4.93;2.42;;;;;;;20.65;56.60;100176.72;4974280;28;20133;-67
2022/07/23 07:51:33;;;;;;;3.08;2.13;;;;;;;20.59;56.60;100172.78;4974480;28;20506;-64
2022/07/23 07:54:01;;;;;;;3.80;2.28;;;;;;;20.55;56.62;100176.72;4974658;28;20058;-64
2022/07/23 07:56:29;;;;;;;2.97;2.22;;;;;;;20.53;56.74;100174.19;4973166;28;20415;-65
2022/07/23 07:58:55;;;;;;;3.80;2.38;;;;;;;20.54;57.10;100180.41;4971093;28;20061;-64
2022/07/23 08:01:22;;;;;;;4.55;2.42;;;;;;;20.57;56.81;100177.44;4974244;28;20094;-66
2022/07/23 08:03:51;;;;;;;3.08;2.13;;;;;;;20.62;57.14;100177.84;4972939;28;20065;-66
2022/07/23 08:06:17;;;;;;;2.72;2.08;;;;;;;20.69;56.24;100181.66;4973977;28;20062;-65
2022/07/23 08:08:46;;;;;;;7.18;2.13;;;;;;;20.78;55.69;100181.78;4974173;28;20093;-67
2022/07/23 08:11:13;;;;;;;4.10;2.40;;;;;;;20.85;56.02;100179.38;4974029;28;20047;-64
2022/07/23 08:13:40;;;;;;;6.20;2.17;;;;;;;20.92;55.73;100184.03;4974064;28;20466;-64
2022/07/23 08:16:07;;;;;;;3.38;1.45;;;;;;;21.00;55.67;100179.78;4973717;28;20043;-65
2022/07/23 08:18:34;;;;;;;3.17;1.40;;;;;;;21.06;55.35;100192.56;4973553;28;20565;-65
2022/07/23 08:21:00;;;;;;;2.33;1.38;;;;;;;21.12;55.31;100193.84;4973652;28;20113;-64
2022/07/23 08:23:27;;;;;;;2.45;1.30;;;;;;;21.16;55.06;100190.69;4974041;28;20047;-66
2022/07/23 08:25:56;;;;;;;2.83;1.65;;;;;;;21.23;54.78;100199.00;4973675;28;20105;-65
2022/07/23 08:28:23;;;;;;;3.95;1.40;;;;;;;21.30;55.20;100191.25;4973502;28;20047;-65
2022/07/23 08:30:49;;;;;;;5.60;1.70;;;;;;;21.36;54.73;100187.97;4973717;28;20081;-67
2022/07/23 08:33:18;;;;;;;3.85;1.38;;;;;;;21.44;54.18;100192.56;4973591;28;20055;-64
2022/07/23 08:35:59;;;;;;;1.75;1.40;;;;;;;21.53;53.89;100197.03;4972698;28;20101;-64
2022/07/23 08:38:25;;;;;;;4.70;1.50;;;;;;;21.59;54.20;100196.47;4972083;28;20500;-65
2022/07/23 08:40:54;;;;;;;2.25;1.35;;;;;;;21.65;53.62;100203.06;4973410;28;20046;-64
2022/07/23 08:43:23;;;;;;;2.50;1.20;;;;;;;21.72;53.50;100200.63;4973456;28;20063;-66
2022/07/23 08:45:52;;;;;;;5.82;1.42;;;;;;;21.81;53.38;100198.91;4973361;28;20058;-65
2022/07/23 08:48:21;;;;;;;2.35;1.20;;;;;;;21.86;52.66;100210.00;4972172;28;20268;-64
2022/07/23 08:50:51;;;;;;;1.92;0.93;;;;;;;21.90;52.62;100203.34;4973142;28;20090;-64
2022/07/23 08:53:20;;;;;;;4.05;1.10;;;;;;;21.97;53.14;100206.25;4973286;28;20082;-64
2022/07/23 08:55:49;;;;;;;2.75;1.33;;;;;;;22.05;52.30;100200.16;4971979;28;20058;-66
2022/07/23 08:58:16;;;;;;;3.33;1.50;;;;;;;22.13;52.82;100203.75;4972940;28;20054;-65
2022/07/23 09:00:43;;;;;;;2.17;1.20;;;;;;;22.21;52.46;100202.16;4973350;28;20050;-65
2022/07/23 09:03:22;;;;;;;3.03;1.48;;;;;;;22.23;51.35;100209.06;4971901;28;20051;-63
2022/07/23 09:05:53;;;;;;;2.30;1.02;;;;;;;22.28;51.34;100207.75;4971956;28;20109;-64
2022/07/23 09:08:22;;;;;;;2.63;1.08;;;;;;;22.29;51.29;100214.78;4972896;28;20051;-64
2022/07/23 09:10:58;;;;;;;2.42;1.25;;;;;;;22.29;51.19;100206.75;4972918;28;20058;-66
2022/07/23 09:13:38;;;;;;;2.17;1.00;;;;;;;22.29;50.82;100206.75;4972904;28;20051;-64
2022/07/23 09:16:13;;;;;;;1.73;0.90;;;;;;;22.36;50.52;100210.50;4973031;28;20049;-64
2022/07/23 09:18:46;;;;;;;3.20;1.20;;;;;;;22.44;51.19;100205.22;4972598;28;20546;-64
2022/07/23 09:21:28;;;;;;;1.75;0.80;;;;;;;22.52;50.83;100204.44;4971486;28;20055;-63
2022/07/23 09:24:09;;;;;;;1.63;0.65;;;;;;;22.59;49.94;100205.56;4973038;28;20051;-63
2022/07/23 09:26:44;;;;;;;2.03;1.00;;;;;;;22.67;50.10;100203.91;4971452;28;20058;-64
2022/07/23 09:29:17;;;;;;;1.60;0.98;;;;;;;22.71;49.58;100207.97;4971135;28;20050;-64
2022/07/23 09:31:51;;;;;;;2.13;1.10;;;;;;;22.75;50.04;100202.16;4972551;28;20058;-64
2022/07/23 09:34:25;;;;;;;1.58;0.80;;;;;;;22.86;50.23;100198.38;4972226;28;20046;-64
2022/07/23 09:36:57;;;;;;;1.45;0.77;;;;;;;22.95;49.96;100209.97;4972605;28;20065;-64
2022/07/23 09:39:29;;;;;;;1.08;0.95;;;;;;;23.03;49.46;100203.84;4972255;28;20085;-65
2022/07/23 09:41:57;;;;;;;1.10;1.00;;;;;;;23.12;49.77;100215.47;4971265;28;20051;-63
2022/07/23 09:44:23;;;;;;;1.42;0.90;;;;;;;23.18;49.05;100209.47;4972729;28;20069;-64
2022/07/23 09:46:59;;;;;;;3.20;1.00;;;;;;;23.23;49.13;100215.19;4972495;28;20133;-65
2022/07/23 09:49:25;;;;;;;2.70;1.17;;;;;;;23.30;49.19;100221.59;4971945;28;20050;-65
2022/07/23 09:51:57;;;;;;;2.08;0.88;;;;;;;23.35;48.21;100212.25;4972255;28;20055;-64
2022/07/23 09:54:36;;;;;;;1.20;0.67;;;;;;;23.42;48.04;100224.03;4972333;28;20055;-64
2022/07/23 09:57:13;;;;;;;1.63;1.10;;;;;;;23.46;47.96;100217.34;4970953;28;20058;-63
2022/07/23 09:59:41;;;;;;;2.00;0.93;;;;;;;23.54;48.67;100214.69;4970820;28;20066;-64
2022/07/23 10:02:14;;;;;;;2.97;1.05;;;;;;;23.59;47.90;100206.16;4970888;28;20066;-65
2022/07/23 10:04:43;;;;;;;1.20;0.80;;;;;;;23.67;48.63;100210.72;4972114;28;20061;-65
2022/07/23 10:07:10;;;;;;;3.28;0.98;;;;;;;23.73;48.43;100204.69;4971956;28;20070;-65
2022/07/23 10:09:39;;;;;;;1.30;0.80;;;;;;;23.81;47.71;100203.88;4971699;28;20050;-67
2022/07/23 10:14:59;;;;;;;0.90;0.80;;;;;;;23.96;47.76;100209.47;4972155;28;20053;-65
2022/07/23 10:17:30;;;;;;;3.08;1.00;;;;;;;23.97;47.04;100205.78;4972056;28;20051;-64
2022/07/23 10:19:57;;;;;;;3.50;0.85;;;;;;;24.03;47.32;100199.72;4971714;28;20058;-65
2022/07/23 10:22:27;;;;;;;1.42;0.70;;;;;;;24.07;47.25;100201.06;4971784;28;20050;-65
2022/07/23 10:25:09;;;;;;;2.22;0.95;;;;;;;24.14;46.91;100195.09;4971989;28;20061;-65
2022/07/23 10:27:42;;;;;;;1.85;0.90;;;;;;;24.24;47.40;100194.91;4971780;28;20055;-65
2022/07/23 10:30:46;;;;;;;2.13;0.75;;;;;;;24.25;46.70;100200.13;4971390;28;20558;-65
2022/07/23 10:33:24;;;;;;;1.38;0.95;;;;;;;24.36;46.23;100195.44;4971628;28;20047;-65
2022/07/23 10:36:27;;;;;;;1.13;0.80;;;;;;;24.37;45.80;100194.41;4971916;28;20554;-64
2022/07/23 10:39:14;;;;;;;1.35;0.80;;;;;;;24.52;46.55;100205.34;4971522;28;20051;-67
2022/07/23 10:41:42;;;;;;;2.83;0.90;;;;;;;24.57;46.29;100211.91;4971742;28;20522;-64
2022/07/23 10:44:37;;;;;;;1.23;0.80;;;;;;;24.60;45.70;100206.19;4971976;28;20090;-66
2022/07/23 10:49:48;;;;;;;3.72;1.10;;;;;;;24.88;46.95;100193.38;4975066;28;20558;-65
2022/07/23 10:52:21;;;;;;;1.35;0.80;;;;;;;25.04;46.36;100195.22;4975315;28;20054;-65
2022/07/23 10:54:57;;;;;;;1.23;0.70;;;;;;;25.28;48.07;100199.69;4974154;28;20065;-65
2022/07/23 10:57:25;;;;;;;2.38;0.77;;;;;;;25.64;47.26;100203.78;4975404;28;20054;-65
2022/07/23 11:00:01;;;;;;;1.73;0.77;;;;;;;26.06;46.05;100200.84;4975327;28;20074;-67
2022/07/23 11:02:30;;;;;;;1.85;0.90;;;;;;;26.57;45.68;100203.03;4975420;28;20050;-65
2022/07/23 11:05:23;;;;;;;2.08;0.82;;;;;;;27.10;45.07;100202.19;4974165;28;20047;-66
2022/07/23 11:08:11;;;;;;;1.92;0.90;;;;;;;27.69;43.59;100194.25;4971913;28;20050;-68
2022/07/23 11:10:46;;;;;;;1.52;0.70;;;;;;;28.26;41.19;100196.34;4975283;28;20053;-65
2022/07/23 11:13:22;;;;;;;0.85;0.63;;;;;;;28.78;41.41;100212.41;4973837;28;20460;-64
2022/07/23 11:16:01;;;;;;;2.45;0.70;;;;;;;29.26;41.16;100198.13;4975019;28;20504;-66
2022/07/23 11:18:43;;;;;;;1.85;0.77;;;;;;;29.71;40.29;100200.41;4974929;28;20051;-65
2022/07/23 11:21:23;;;;;;;1.10;0.60;;;;;;;30.14;38.60;100206.63;4975010;28;20098;-64
2022/07/23 11:24:15;;;;;;;1.25;0.55;;;;;;;30.48;38.40;100196.63;4974926;28;20076;-66
2022/07/23 11:26:48;;;;;;;1.83;0.70;;;;;;;30.83;37.99;100197.47;4975189;28;20053;-65
2022/07/23 11:29:36;;;;;;;;;;;;;;;31.03;41.47;100187.41;4975312;28;20081;-67
2022/07/23 11:32:17;;;;;;;0.50;0.50;;;;;;;31.35;36.51;100188.56;4974713;28;19921;-65
2022/07/23 11:34:48;;;;;;;1.73;0.73;;;;;;;31.49;35.45;100190.19;4974721;28;20062;-65
2022/07/23 11:37:34;;;;;;;3.38;0.88;;;;;;;31.60;36.12;100188.66;4974730;28;20047;-64
2022/07/23 11:40:06;;;;;;;1.38;0.70;;;;;;;31.80;35.28;100190.47;4974612;28;20058;-66